sensor_id;sensor_type;location;lat;lon;timestamp;P1;durP1;ratioP1;P2;durP2;ratioP2
253;SDS011;590;48.772;8.846;2023-05-29T00:01:11;7.40;;;6.93;;
253;SDS011;590;48.772;8.846;2023-05-29T00:03:39;6.70;;;6.30;;
253;SDS011;590;48.772;8.846;2023-05-29T00:06:07;6.50;;;6.10;;
253;SDS011;590;48.772;8.846;2023-05-29T00:08:35;8.63;;;6.97;;
253;SDS011;590;48.772;8.846;2023-05-29T00:11:03;7.47;;;6.77;;
253;SDS011;590;48.772;8.846;2023-05-29T00:13:33;7.03;;;6.30;;
253;SDS011;590;48.772;8.846;2023-05-29T00:16:01;7.63;;;6.47;;
253;SDS011;590;48.772;8.846;2023-05-29T00:18:30;6.80;;;6.40;;
253;SDS011;590;48.772;8.846;2023-05-29T00:20:58;6.60;;;5.53;;
253;SDS011;590;48.772;8.846;2023-05-29T00:23:26;7.90;;;6.07;;
253;SDS011;590;48.772;8.846;2023-05-29T00:25:55;7.57;;;6.50;;
253;SDS011;590;48.772;8.846;2023-05-29T00:28:23;8.33;;;7.40;;
253;SDS011;590;48.772;8.846;2023-05-29T00:30:52;7.70;;;6.53;;
253;SDS011;590;48.772;8.846;2023-05-29T00:33:20;8.13;;;7.20;;
253;SDS011;590;48.772;8.846;2023-05-29T00:35:48;7.70;;;7.30;;
253;SDS011;590;48.772;8.846;2023-05-29T00:38:17;7.40;;;6.93;;
253;SDS011;590;48.772;8.846;2023-05-29T00:40:45;7.20;;;6.80;;
253;SDS011;590;48.772;8.846;2023-05-29T00:43:13;7.13;;;6.60;;
253;SDS011;590;48.772;8.846;2023-05-29T00:45:41;7.37;;;6.97;;
253;SDS011;590;48.772;8.846;2023-05-29T00:48:10;6.60;;;6.03;;
253;SDS011;590;48.772;8.846;2023-05-29T00:50:39;6.50;;;6.07;;
253;SDS011;590;48.772;8.846;2023-05-29T00:53:08;6.43;;;6.03;;
253;SDS011;590;48.772;8.846;2023-05-29T00:55:36;6.60;;;5.80;;
253;SDS011;590;48.772;8.846;2023-05-29T00:58:05;6.70;;;5.60;;
253;SDS011;590;48.772;8.846;2023-05-29T01:00:33;6.07;;;5.77;;
253;SDS011;590;48.772;8.846;2023-05-29T01:03:02;5.90;;;5.63;;
253;SDS011;590;48.772;8.846;2023-05-29T01:05:34;8.53;;;6.50;;
253;SDS011;590;48.772;8.846;2023-05-29T01:08:02;6.90;;;6.50;;
253;SDS011;590;48.772;8.846;2023-05-29T01:10:31;6.80;;;6.00;;
253;SDS011;590;48.772;8.846;2023-05-29T01:12:59;7.10;;;6.23;;
253;SDS011;590;48.772;8.846;2023-05-29T01:15:35;6.50;;;6.10;;
253;SDS011;590;48.772;8.846;2023-05-29T01:18:19;6.53;;;6.13;;
253;SDS011;590;48.772;8.846;2023-05-29T01:20:57;6.53;;;6.13;;
253;SDS011;590;48.772;8.846;2023-05-29T01:23:37;9.07;;;6.40;;
253;SDS011;590;48.772;8.846;2023-05-29T01:29:21;6.00;;;5.70;;
253;SDS011;590;48.772;8.846;2023-05-29T01:31:51;7.13;;;6.73;;
253;SDS011;590;48.772;8.846;2023-05-29T01:34:20;7.00;;;6.60;;
253;SDS011;590;48.772;8.846;2023-05-29T01:36:48;5.97;;;5.67;;
253;SDS011;590;48.772;8.846;2023-05-29T01:39:16;7.97;;;6.20;;
253;SDS011;590;48.772;8.846;2023-05-29T01:41:45;7.90;;;6.80;;
253;SDS011;590;48.772;8.846;2023-05-29T01:44:14;7.27;;;6.50;;
253;SDS011;590;48.772;8.846;2023-05-29T01:46:45;7.03;;;6.30;;
253;SDS011;590;48.772;8.846;2023-05-29T01:49:13;6.73;;;6.33;;
253;SDS011;590;48.772;8.846;2023-05-29T01:51:43;6.70;;;6.30;;
253;SDS011;590;48.772;8.846;2023-05-29T01:54:11;6.40;;;6.00;;
253;SDS011;590;48.772;8.846;2023-05-29T01:56:39;6.70;;;6.00;;
253;SDS011;590;48.772;8.846;2023-05-29T01:59:07;6.33;;;5.97;;
253;SDS011;590;48.772;8.846;2023-05-29T02:01:38;8.23;;;6.40;;
253;SDS011;590;48.772;8.846;2023-05-29T02:04:08;6.90;;;6.50;;
253;SDS011;590;48.772;8.846;2023-05-29T02:06:36;6.83;;;6.33;;
253;SDS011;590;48.772;8.846;2023-05-29T02:09:04;6.13;;;5.83;;
253;SDS011;590;48.772;8.846;2023-05-29T02:11:33;6.43;;;6.07;;
253;SDS011;590;48.772;8.846;2023-05-29T02:14:01;8.40;;;7.03;;
253;SDS011;590;48.772;8.846;2023-05-29T02:16:30;7.90;;;6.17;;
253;SDS011;590;48.772;8.846;2023-05-29T02:19:00;6.47;;;5.50;;
253;SDS011;590;48.772;8.846;2023-05-29T02:21:30;6.10;;;5.80;;
253;SDS011;590;48.772;8.846;2023-05-29T02:23:58;5.97;;;5.53;;
253;SDS011;590;48.772;8.846;2023-05-29T02:26:26;7.40;;;7.03;;
253;SDS011;590;48.772;8.846;2023-05-29T02:28:54;6.50;;;6.10;;
253;SDS011;590;48.772;8.846;2023-05-29T02:31:22;6.43;;;6.03;;
253;SDS011;590;48.772;8.846;2023-05-29T02:33:50;5.47;;;5.17;;
253;SDS011;590;48.772;8.846;2023-05-29T02:36:18;7.27;;;6.87;;
253;SDS011;590;48.772;8.846;2023-05-29T02:38:48;7.00;;;6.60;;
253;SDS011;590;48.772;8.846;2023-05-29T02:41:16;9.60;;;7.40;;
253;SDS011;590;48.772;8.846;2023-05-29T02:43:44;6.53;;;6.20;;
253;SDS011;590;48.772;8.846;2023-05-29T02:46:12;7.63;;;7.23;;
253;SDS011;590;48.772;8.846;2023-05-29T02:48:40;6.80;;;6.40;;
253;SDS011;590;48.772;8.846;2023-05-29T02:51:08;6.13;;;5.87;;
253;SDS011;590;48.772;8.846;2023-05-29T02:53:36;6.27;;;5.93;;
253;SDS011;590;48.772;8.846;2023-05-29T02:56:05;5.47;;;5.17;;
253;SDS011;590;48.772;8.846;2023-05-29T02:58:34;6.17;;;5.87;;
253;SDS011;590;48.772;8.846;2023-05-29T03:01:02;9.15;;;6.22;;
253;SDS011;590;48.772;8.846;2023-05-29T03:03:31;5.67;;;5.37;;
253;SDS011;590;48.772;8.846;2023-05-29T03:05:59;6.10;;;5.80;;
253;SDS011;590;48.772;8.846;2023-05-29T03:08:29;6.75;;;6.35;;
253;SDS011;590;48.772;8.846;2023-05-29T03:10:57;6.03;;;5.17;;
253;SDS011;590;48.772;8.846;2023-05-29T03:13:26;6.23;;;5.90;;
253;SDS011;590;48.772;8.846;2023-05-29T03:15:54;7.03;;;6.63;;
253;SDS011;590;48.772;8.846;2023-05-29T03:18:23;6.43;;;6.03;;
253;SDS011;590;48.772;8.846;2023-05-29T03:20:51;6.50;;;6.10;;
253;SDS011;590;48.772;8.846;2023-05-29T03:23:21;9.83;;;7.20;;
253;SDS011;590;48.772;8.846;2023-05-29T03:25:52;5.80;;;5.50;;
253;SDS011;590;48.772;8.846;2023-05-29T03:28:21;6.57;;;6.20;;
253;SDS011;590;48.772;8.846;2023-05-29T03:30:50;6.70;;;6.30;;
253;SDS011;590;48.772;8.846;2023-05-29T03:33:19;6.50;;;6.10;;
253;SDS011;590;48.772;8.846;2023-05-29T03:35:47;9.87;;;5.10;;
253;SDS011;590;48.772;8.846;2023-05-29T03:38:15;6.20;;;5.90;;
253;SDS011;590;48.772;8.846;2023-05-29T03:40:43;6.60;;;6.13;;
253;SDS011;590;48.772;8.846;2023-05-29T03:43:11;6.50;;;6.10;;
253;SDS011;590;48.772;8.846;2023-05-29T03:45:39;5.87;;;5.57;;
253;SDS011;590;48.772;8.846;2023-05-29T03:48:08;7.23;;;5.90;;
253;SDS011;590;48.772;8.846;2023-05-29T03:50:36;6.53;;;6.13;;
253;SDS011;590;48.772;8.846;2023-05-29T03:53:04;5.80;;;5.50;;
253;SDS011;590;48.772;8.846;2023-05-29T03:55:32;6.10;;;5.80;;
253;SDS011;590;48.772;8.846;2023-05-29T03:58:00;6.17;;;5.87;;
253;SDS011;590;48.772;8.846;2023-05-29T04:00:28;6.63;;;6.33;;
253;SDS011;590;48.772;8.846;2023-05-29T04:02:56;5.90;;;5.60;;
253;SDS011;590;48.772;8.846;2023-05-29T04:05:26;6.40;;;6.00;;
253;SDS011;590;48.772;8.846;2023-05-29T04:07:55;6.23;;;5.90;;
253;SDS011;590;48.772;8.846;2023-05-29T04:10:40;8.20;;;5.33;;
253;SDS011;590;48.772;8.846;2023-05-29T04:13:09;5.63;;;5.33;;
253;SDS011;590;48.772;8.846;2023-05-29T04:15:38;5.40;;;5.10;;
253;SDS011;590;48.772;8.846;2023-05-29T04:18:06;6.63;;;6.23;;
253;SDS011;590;48.772;8.846;2023-05-29T04:20:35;6.90;;;6.33;;
253;SDS011;590;48.772;8.846;2023-05-29T04:23:03;5.87;;;5.57;;
253;SDS011;590;48.772;8.846;2023-05-29T04:25:31;5.90;;;5.60;;
253;SDS011;590;48.772;8.846;2023-05-29T04:28:15;5.90;;;5.60;;
253;SDS011;590;48.772;8.846;2023-05-29T04:30:43;6.10;;;5.80;;
253;SDS011;590;48.772;8.846;2023-05-29T04:33:11;5.20;;;4.90;;
253;SDS011;590;48.772;8.846;2023-05-29T04:35:42;5.70;;;4.80;;
253;SDS011;590;48.772;8.846;2023-05-29T04:38:10;5.67;;;5.37;;
253;SDS011;590;48.772;8.846;2023-05-29T04:40:38;5.40;;;5.10;;
253;SDS011;590;48.772;8.846;2023-05-29T04:43:06;5.87;;;5.57;;
253;SDS011;590;48.772;8.846;2023-05-29T04:45:35;4.67;;;4.37;;
253;SDS011;590;48.772;8.846;2023-05-29T04:48:04;4.63;;;4.33;;
253;SDS011;590;48.772;8.846;2023-05-29T04:50:32;5.30;;;5.00;;
253;SDS011;590;48.772;8.846;2023-05-29T04:53:02;5.33;;;5.03;;
253;SDS011;590;48.772;8.846;2023-05-29T04:55:30;5.03;;;4.73;;
253;SDS011;590;48.772;8.846;2023-05-29T04:57:58;5.87;;;5.30;;
253;SDS011;590;48.772;8.846;2023-05-29T05:00:26;5.70;;;5.40;;
253;SDS011;590;48.772;8.846;2023-05-29T05:02:54;4.80;;;4.50;;
253;SDS011;590;48.772;8.846;2023-05-29T05:05:22;4.80;;;4.50;;
253;SDS011;590;48.772;8.846;2023-05-29T05:07:50;5.70;;;5.40;;
253;SDS011;590;48.772;8.846;2023-05-29T05:10:20;5.23;;;4.93;;
253;SDS011;590;48.772;8.846;2023-05-29T05:12:48;5.07;;;4.77;;
253;SDS011;590;48.772;8.846;2023-05-29T05:15:16;5.17;;;4.87;;
253;SDS011;590;48.772;8.846;2023-05-29T05:17:43;5.03;;;4.73;;
253;SDS011;590;48.772;8.846;2023-05-29T05:20:13;6.17;;;5.87;;
253;SDS011;590;48.772;8.846;2023-05-29T05:22:41;6.37;;;5.27;;
253;SDS011;590;48.772;8.846;2023-05-29T05:25:09;5.63;;;5.33;;
253;SDS011;590;48.772;8.846;2023-05-29T05:27:39;4.97;;;4.67;;
253;SDS011;590;48.772;8.846;2023-05-29T05:30:07;6.27;;;5.93;;
253;SDS011;590;48.772;8.846;2023-05-29T05:32:37;5.50;;;5.20;;
253;SDS011;590;48.772;8.846;2023-05-29T05:35:05;5.30;;;5.00;;
253;SDS011;590;48.772;8.846;2023-05-29T05:37:34;5.70;;;5.40;;
253;SDS011;590;48.772;8.846;2023-05-29T05:40:03;5.20;;;4.90;;
253;SDS011;590;48.772;8.846;2023-05-29T05:42:32;5.93;;;5.63;;
253;SDS011;590;48.772;8.846;2023-05-29T05:45:02;9.50;;;5.97;;
253;SDS011;590;48.772;8.846;2023-05-29T05:47:31;5.97;;;5.67;;
253;SDS011;590;48.772;8.846;2023-05-29T05:49:59;7.10;;;5.67;;
253;SDS011;590;48.772;8.846;2023-05-29T05:52:27;5.97;;;5.67;;
253;SDS011;590;48.772;8.846;2023-05-29T05:54:57;6.30;;;5.93;;
253;SDS011;590;48.772;8.846;2023-05-29T05:57:25;5.80;;;5.50;;
253;SDS011;590;48.772;8.846;2023-05-29T05:59:54;7.80;;;5.73;;
253;SDS011;590;48.772;8.846;2023-05-29T06:02:23;5.70;;;5.40;;
253;SDS011;590;48.772;8.846;2023-05-29T06:04:51;6.43;;;5.17;;
253;SDS011;590;48.772;8.846;2023-05-29T06:07:19;6.20;;;5.90;;
253;SDS011;590;48.772;8.846;2023-05-29T06:09:48;6.00;;;5.70;;
253;SDS011;590;48.772;8.846;2023-05-29T06:12:16;5.40;;;5.10;;
253;SDS011;590;48.772;8.846;2023-05-29T06:14:44;7.30;;;5.47;;
253;SDS011;590;48.772;8.846;2023-05-29T06:17:12;5.20;;;4.90;;
253;SDS011;590;48.772;8.846;2023-05-29T06:19:41;4.53;;;4.23;;
253;SDS011;590;48.772;8.846;2023-05-29T06:22:10;5.70;;;4.67;;
253;SDS011;590;48.772;8.846;2023-05-29T06:24:38;6.13;;;4.50;;
253;SDS011;590;48.772;8.846;2023-05-29T06:27:06;5.20;;;4.90;;
253;SDS011;590;48.772;8.846;2023-05-29T06:29:35;4.77;;;4.40;;
253;SDS011;590;48.772;8.846;2023-05-29T06:32:04;4.63;;;4.30;;
253;SDS011;590;48.772;8.846;2023-05-29T06:34:32;4.73;;;4.43;;
253;SDS011;590;48.772;8.846;2023-05-29T06:37:02;5.10;;;4.80;;
253;SDS011;590;48.772;8.846;2023-05-29T06:39:30;5.27;;;4.90;;
253;SDS011;590;48.772;8.846;2023-05-29T06:41:58;4.80;;;4.50;;
253;SDS011;590;48.772;8.846;2023-05-29T06:44:27;5.90;;;4.50;;
253;SDS011;590;48.772;8.846;2023-05-29T06:46:55;4.97;;;4.67;;
253;SDS011;590;48.772;8.846;2023-05-29T06:49:23;4.90;;;4.60;;
253;SDS011;590;48.772;8.846;2023-05-29T06:51:51;5.00;;;4.70;;
253;SDS011;590;48.772;8.846;2023-05-29T06:54:20;4.70;;;4.40;;
253;SDS011;590;48.772;8.846;2023-05-29T06:56:48;4.63;;;4.33;;
253;SDS011;590;48.772;8.846;2023-05-29T06:59:34;4.97;;;4.73;;
253;SDS011;590;48.772;8.846;2023-05-29T07:02:02;4.00;;;3.80;;
253;SDS011;590;48.772;8.846;2023-05-29T07:04:31;5.80;;;4.70;;
253;SDS011;590;48.772;8.846;2023-05-29T07:06:59;5.70;;;3.87;;
253;SDS011;590;48.772;8.846;2023-05-29T07:09:28;4.37;;;4.07;;
253;SDS011;590;48.772;8.846;2023-05-29T07:11:56;4.57;;;4.10;;
253;SDS011;590;48.772;8.846;2023-05-29T07:14:24;3.80;;;3.60;;
253;SDS011;590;48.772;8.846;2023-05-29T07:16:52;4.17;;;3.93;;
253;SDS011;590;48.772;8.846;2023-05-29T07:19:20;4.17;;;3.87;;
253;SDS011;590;48.772;8.846;2023-05-29T07:21:49;5.30;;;4.50;;
253;SDS011;590;48.772;8.846;2023-05-29T07:24:17;5.17;;;4.87;;
253;SDS011;590;48.772;8.846;2023-05-29T07:26:46;4.50;;;4.20;;
253;SDS011;590;48.772;8.846;2023-05-29T07:29:14;5.23;;;4.93;;
253;SDS011;590;48.772;8.846;2023-05-29T07:31:44;4.73;;;4.27;;
253;SDS011;590;48.772;8.846;2023-05-29T07:34:12;4.60;;;4.33;;
253;SDS011;590;48.772;8.846;2023-05-29T07:36:55;6.17;;;4.10;;
253;SDS011;590;48.772;8.846;2023-05-29T07:39:24;4.93;;;4.13;;
253;SDS011;590;48.772;8.846;2023-05-29T07:41:54;4.23;;;4.00;;
253;SDS011;590;48.772;8.846;2023-05-29T07:44:22;4.50;;;4.20;;
253;SDS011;590;48.772;8.846;2023-05-29T07:46:50;4.90;;;4.37;;
253;SDS011;590;48.772;8.846;2023-05-29T07:49:19;4.63;;;4.33;;
253;SDS011;590;48.772;8.846;2023-05-29T07:51:47;4.60;;;4.30;;
253;SDS011;590;48.772;8.846;2023-05-29T07:54:15;4.97;;;4.67;;
253;SDS011;590;48.772;8.846;2023-05-29T07:56:47;5.07;;;4.00;;
253;SDS011;590;48.772;8.846;2023-05-29T07:59:16;4.80;;;4.17;;
253;SDS011;590;48.772;8.846;2023-05-29T08:01:44;5.20;;;4.90;;
253;SDS011;590;48.772;8.846;2023-05-29T08:04:12;4.67;;;4.37;;
253;SDS011;590;48.772;8.846;2023-05-29T08:06:40;5.00;;;4.43;;
253;SDS011;590;48.772;8.846;2023-05-29T08:09:09;3.97;;;3.77;;
253;SDS011;590;48.772;8.846;2023-05-29T08:11:37;6.90;;;4.90;;
253;SDS011;590;48.772;8.846;2023-05-29T08:14:05;5.47;;;4.40;;
253;SDS011;590;48.772;8.846;2023-05-29T08:16:35;4.60;;;4.30;;
253;SDS011;590;48.772;8.846;2023-05-29T08:19:03;4.43;;;4.20;;
253;SDS011;590;48.772;8.846;2023-05-29T08:21:31;4.83;;;4.53;;
253;SDS011;590;48.772;8.846;2023-05-29T08:23:59;5.57;;;5.27;;
253;SDS011;590;48.772;8.846;2023-05-29T08:26:31;5.67;;;4.90;;
253;SDS011;590;48.772;8.846;2023-05-29T08:28:59;5.60;;;4.80;;
253;SDS011;590;48.772;8.846;2023-05-29T08:31:27;5.17;;;4.87;;
253;SDS011;590;48.772;8.846;2023-05-29T08:33:56;6.73;;;4.30;;
253;SDS011;590;48.772;8.846;2023-05-29T08:36:24;6.33;;;5.13;;
253;SDS011;590;48.772;8.846;2023-05-29T08:38:52;5.60;;;4.50;;
253;SDS011;590;48.772;8.846;2023-05-29T08:41:21;4.97;;;4.67;;
253;SDS011;590;48.772;8.846;2023-05-29T08:43:53;4.50;;;4.20;;
253;SDS011;590;48.772;8.846;2023-05-29T08:46:21;4.60;;;4.30;;
253;SDS011;590;48.772;8.846;2023-05-29T08:48:50;4.97;;;4.67;;
253;SDS011;590;48.772;8.846;2023-05-29T08:51:22;4.90;;;4.63;;
253;SDS011;590;48.772;8.846;2023-05-29T08:53:55;5.53;;;5.23;;
253;SDS011;590;48.772;8.846;2023-05-29T08:56:23;5.37;;;5.07;;
253;SDS011;590;48.772;8.846;2023-05-29T08:59:00;5.53;;;5.23;;
253;SDS011;590;48.772;8.846;2023-05-29T09:01:33;5.93;;;5.57;;
253;SDS011;590;48.772;8.846;2023-05-29T09:04:03;4.90;;;4.60;;
253;SDS011;590;48.772;8.846;2023-05-29T09:06:32;5.33;;;5.00;;
253;SDS011;590;48.772;8.846;2023-05-29T09:09:00;6.20;;;5.10;;
253;SDS011;590;48.772;8.846;2023-05-29T09:11:30;5.17;;;4.70;;
253;SDS011;590;48.772;8.846;2023-05-29T09:13:59;4.77;;;4.47;;
253;SDS011;590;48.772;8.846;2023-05-29T09:16:29;5.57;;;5.27;;
253;SDS011;590;48.772;8.846;2023-05-29T09:19:04;5.23;;;5.00;;
253;SDS011;590;48.772;8.846;2023-05-29T09:21:34;5.50;;;5.20;;
253;SDS011;590;48.772;8.846;2023-05-29T09:24:03;5.00;;;4.70;;
253;SDS011;590;48.772;8.846;2023-05-29T09:26:32;5.43;;;4.70;;
253;SDS011;590;48.772;8.846;2023-05-29T09:29:00;5.70;;;4.67;;
253;SDS011;590;48.772;8.846;2023-05-29T09:31:30;5.17;;;4.87;;
253;SDS011;590;48.772;8.846;2023-05-29T09:34:00;5.03;;;4.73;;
253;SDS011;590;48.772;8.846;2023-05-29T09:36:30;5.97;;;5.13;;
253;SDS011;590;48.772;8.846;2023-05-29T09:39:02;5.53;;;5.23;;
253;SDS011;590;48.772;8.846;2023-05-29T09:41:42;5.63;;;5.33;;
253;SDS011;590;48.772;8.846;2023-05-29T09:44:12;5.67;;;5.33;;
253;SDS011;590;48.772;8.846;2023-05-29T09:46:40;6.90;;;5.13;;
253;SDS011;590;48.772;8.846;2023-05-29T09:49:10;6.03;;;4.77;;
253;SDS011;590;48.772;8.846;2023-05-29T09:51:39;4.67;;;4.37;;
253;SDS011;590;48.772;8.846;2023-05-29T09:54:16;5.90;;;5.50;;
253;SDS011;590;48.772;8.846;2023-05-29T09:56:45;6.60;;;5.37;;
253;SDS011;590;48.772;8.846;2023-05-29T09:59:14;5.03;;;4.37;;
253;SDS011;590;48.772;8.846;2023-05-29T10:01:46;6.50;;;5.10;;
253;SDS011;590;48.772;8.846;2023-05-29T10:04:14;5.63;;;5.33;;
253;SDS011;590;48.772;8.846;2023-05-29T10:06:44;6.37;;;5.27;;
253;SDS011;590;48.772;8.846;2023-05-29T10:09:15;5.93;;;4.90;;
253;SDS011;590;48.772;8.846;2023-05-29T10:11:48;4.70;;;4.40;;
253;SDS011;590;48.772;8.846;2023-05-29T10:14:19;5.50;;;4.80;;
253;SDS011;590;48.772;8.846;2023-05-29T10:16:50;6.10;;;5.80;;
253;SDS011;590;48.772;8.846;2023-05-29T10:19:21;6.80;;;5.30;;
253;SDS011;590;48.772;8.846;2023-05-29T10:21:54;5.10;;;4.80;;
253;SDS011;590;48.772;8.846;2023-05-29T10:24:24;5.33;;;4.63;;
253;SDS011;590;48.772;8.846;2023-05-29T10:26:53;5.70;;;5.20;;
253;SDS011;590;48.772;8.846;2023-05-29T10:29:24;5.37;;;5.07;;
253;SDS011;590;48.772;8.846;2023-05-29T10:32:01;6.40;;;5.33;;
253;SDS011;590;48.772;8.846;2023-05-29T10:34:37;5.73;;;4.50;;
253;SDS011;590;48.772;8.846;2023-05-29T10:37:15;4.87;;;4.60;;
253;SDS011;590;48.772;8.846;2023-05-29T10:39:54;4.43;;;3.83;;
253;SDS011;590;48.772;8.846;2023-05-29T10:42:42;4.63;;;4.33;;
253;SDS011;590;48.772;8.846;2023-05-29T10:48:37;5.90;;;5.07;;
253;SDS011;590;48.772;8.846;2023-05-29T10:51:07;4.93;;;4.40;;
253;SDS011;590;48.772;8.846;2023-05-29T10:53:37;5.67;;;4.90;;
253;SDS011;590;48.772;8.846;2023-05-29T10:56:10;9.83;;;5.40;;
253;SDS011;590;48.772;8.846;2023-05-29T10:58:43;7.67;;;4.83;;
253;SDS011;590;48.772;8.846;2023-05-29T11:01:17;5.50;;;5.20;;
253;SDS011;590;48.772;8.846;2023-05-29T11:03:49;5.43;;;5.17;;
253;SDS011;590;48.772;8.846;2023-05-29T11:06:19;5.10;;;4.80;;
253;SDS011;590;48.772;8.846;2023-05-29T11:08:53;4.73;;;4.43;;
253;SDS011;590;48.772;8.846;2023-05-29T11:11:30;5.17;;;4.87;;
253;SDS011;590;48.772;8.846;2023-05-29T11:14:01;5.13;;;4.73;;
253;SDS011;590;48.772;8.846;2023-05-29T11:16:37;5.27;;;4.83;;
253;SDS011;590;48.772;8.846;2023-05-29T11:19:06;6.53;;;5.23;;
253;SDS011;590;48.772;8.846;2023-05-29T11:21:44;5.30;;;4.70;;
253;SDS011;590;48.772;8.846;2023-05-29T11:24:22;6.63;;;5.13;;
253;SDS011;590;48.772;8.846;2023-05-29T11:26:53;5.77;;;4.93;;
253;SDS011;590;48.772;8.846;2023-05-29T11:29:22;5.30;;;4.87;;
253;SDS011;590;48.772;8.846;2023-05-29T11:31:54;5.33;;;5.03;;
253;SDS011;590;48.772;8.846;2023-05-29T11:34:28;7.00;;;4.90;;
253;SDS011;590;48.772;8.846;2023-05-29T11:36:56;6.90;;;5.07;;
253;SDS011;590;48.772;8.846;2023-05-29T11:39:25;4.90;;;4.60;;
253;SDS011;590;48.772;8.846;2023-05-29T11:41:55;11.10;;;4.53;;
253;SDS011;590;48.772;8.846;2023-05-29T11:44:23;7.23;;;5.07;;
253;SDS011;590;48.772;8.846;2023-05-29T11:46:59;4.60;;;4.30;;
253;SDS011;590;48.772;8.846;2023-05-29T11:49:29;5.00;;;4.70;;
253;SDS011;590;48.772;8.846;2023-05-29T11:52:05;6.40;;;4.30;;
253;SDS011;590;48.772;8.846;2023-05-29T11:54:42;5.03;;;4.73;;
253;SDS011;590;48.772;8.846;2023-05-29T11:57:18;5.10;;;4.00;;
253;SDS011;590;48.772;8.846;2023-05-29T11:59:47;4.47;;;3.97;;
253;SDS011;590;48.772;8.846;2023-05-29T12:02:18;4.73;;;4.40;;
253;SDS011;590;48.772;8.846;2023-05-29T12:04:59;4.77;;;4.47;;
253;SDS011;590;48.772;8.846;2023-05-29T12:07:27;5.83;;;4.80;;
253;SDS011;590;48.772;8.846;2023-05-29T12:09:55;6.33;;;4.57;;
253;SDS011;590;48.772;8.846;2023-05-29T12:12:25;5.40;;;3.80;;
253;SDS011;590;48.772;8.846;2023-05-29T12:14:55;4.83;;;4.50;;
253;SDS011;590;48.772;8.846;2023-05-29T12:17:24;4.50;;;4.30;;
253;SDS011;590;48.772;8.846;2023-05-29T12:19:55;4.87;;;4.57;;
253;SDS011;590;48.772;8.846;2023-05-29T12:22:30;5.40;;;4.20;;
253;SDS011;590;48.772;8.846;2023-05-29T12:25:03;3.80;;;3.60;;
253;SDS011;590;48.772;8.846;2023-05-29T12:27:34;4.53;;;4.27;;
253;SDS011;590;48.772;8.846;2023-05-29T12:30:07;5.13;;;3.77;;
253;SDS011;590;48.772;8.846;2023-05-29T12:32:46;3.93;;;3.73;;
253;SDS011;590;48.772;8.846;2023-05-29T12:35:16;4.57;;;3.70;;
253;SDS011;590;48.772;8.846;2023-05-29T12:37:45;3.77;;;3.57;;
253;SDS011;590;48.772;8.846;2023-05-29T12:40:14;4.63;;;4.13;;
253;SDS011;590;48.772;8.846;2023-05-29T12:42:44;3.83;;;3.63;;
253;SDS011;590;48.772;8.846;2023-05-29T12:45:13;5.80;;;3.80;;
253;SDS011;590;48.772;8.846;2023-05-29T12:47:45;3.90;;;3.73;;
253;SDS011;590;48.772;8.846;2023-05-29T12:50:20;3.87;;;3.67;;
253;SDS011;590;48.772;8.846;2023-05-29T12:53:00;4.30;;;4.00;;
253;SDS011;590;48.772;8.846;2023-05-29T12:55:29;4.87;;;3.40;;
253;SDS011;590;48.772;8.846;2023-05-29T12:58:01;3.70;;;3.50;;
253;SDS011;590;48.772;8.846;2023-05-29T13:00:33;4.20;;;3.00;;
253;SDS011;590;48.772;8.846;2023-05-29T13:03:02;3.97;;;3.77;;
253;SDS011;590;48.772;8.846;2023-05-29T13:05:30;4.40;;;3.43;;
253;SDS011;590;48.772;8.846;2023-05-29T13:07:59;4.67;;;3.83;;
253;SDS011;590;48.772;8.846;2023-05-29T13:10:27;4.33;;;4.07;;
253;SDS011;590;48.772;8.846;2023-05-29T13:12:56;4.60;;;3.60;;
253;SDS011;590;48.772;8.846;2023-05-29T13:15:27;4.27;;;4.00;;
253;SDS011;590;48.772;8.846;2023-05-29T13:17:55;4.77;;;3.30;;
253;SDS011;590;48.772;8.846;2023-05-29T13:20:23;5.17;;;4.17;;
253;SDS011;590;48.772;8.846;2023-05-29T13:22:51;4.07;;;3.00;;
253;SDS011;590;48.772;8.846;2023-05-29T13:25:20;3.43;;;3.27;;
253;SDS011;590;48.772;8.846;2023-05-29T13:27:50;3.57;;;3.37;;
253;SDS011;590;48.772;8.846;2023-05-29T13:30:18;3.50;;;3.30;;
253;SDS011;590;48.772;8.846;2023-05-29T13:32:49;3.80;;;3.60;;
253;SDS011;590;48.772;8.846;2023-05-29T13:35:18;5.67;;;3.60;;
253;SDS011;590;48.772;8.846;2023-05-29T13:37:46;3.63;;;3.43;;
253;SDS011;590;48.772;8.846;2023-05-29T13:40:15;5.10;;;4.07;;
253;SDS011;590;48.772;8.846;2023-05-29T13:42:43;4.07;;;3.87;;
253;SDS011;590;48.772;8.846;2023-05-29T13:45:11;4.23;;;3.80;;
253;SDS011;590;48.772;8.846;2023-05-29T13:47:40;4.03;;;3.80;;
253;SDS011;590;48.772;8.846;2023-05-29T13:50:10;4.00;;;3.80;;
253;SDS011;590;48.772;8.846;2023-05-29T13:52:38;6.27;;;4.27;;
253;SDS011;590;48.772;8.846;2023-05-29T13:55:06;4.80;;;4.37;;
253;SDS011;590;48.772;8.846;2023-05-29T13:57:36;4.40;;;4.10;;
253;SDS011;590;48.772;8.846;2023-05-29T14:00:04;3.70;;;3.50;;
253;SDS011;590;48.772;8.846;2023-05-29T14:02:34;3.87;;;3.67;;
253;SDS011;590;48.772;8.846;2023-05-29T14:05:02;5.10;;;4.10;;
253;SDS011;590;48.772;8.846;2023-05-29T14:07:33;3.67;;;3.43;;
253;SDS011;590;48.772;8.846;2023-05-29T14:10:01;3.53;;;3.40;;
253;SDS011;590;48.772;8.846;2023-05-29T14:12:30;4.40;;;3.83;;
253;SDS011;590;48.772;8.846;2023-05-29T14:14:58;4.63;;;3.27;;
253;SDS011;590;48.772;8.846;2023-05-29T14:17:26;3.63;;;3.43;;
253;SDS011;590;48.772;8.846;2023-05-29T14:19:54;3.73;;;3.20;;
253;SDS011;590;48.772;8.846;2023-05-29T14:22:22;4.60;;;3.93;;
253;SDS011;590;48.772;8.846;2023-05-29T14:24:51;5.73;;;4.60;;
253;SDS011;590;48.772;8.846;2023-05-29T14:27:20;4.00;;;3.80;;
253;SDS011;590;48.772;8.846;2023-05-29T14:29:49;3.70;;;3.50;;
253;SDS011;590;48.772;8.846;2023-05-29T14:32:17;5.10;;;4.20;;
253;SDS011;590;48.772;8.846;2023-05-29T14:34:45;4.80;;;3.40;;
253;SDS011;590;48.772;8.846;2023-05-29T14:37:13;4.37;;;3.70;;
253;SDS011;590;48.772;8.846;2023-05-29T14:39:41;4.17;;;3.93;;
253;SDS011;590;48.772;8.846;2023-05-29T14:42:10;4.07;;;3.83;;
253;SDS011;590;48.772;8.846;2023-05-29T14:44:58;4.00;;;3.80;;
253;SDS011;590;48.772;8.846;2023-05-29T14:47:26;3.80;;;3.60;;
253;SDS011;590;48.772;8.846;2023-05-29T14:49:54;5.23;;;3.70;;
253;SDS011;590;48.772;8.846;2023-05-29T14:52:22;5.00;;;3.30;;
253;SDS011;590;48.772;8.846;2023-05-29T14:54:50;4.23;;;3.60;;
253;SDS011;590;48.772;8.846;2023-05-29T14:57:19;3.70;;;3.33;;
253;SDS011;590;48.772;8.846;2023-05-29T14:59:47;6.97;;;3.47;;
253;SDS011;590;48.772;8.846;2023-05-29T15:02:16;3.47;;;3.27;;
253;SDS011;590;48.772;8.846;2023-05-29T15:04:44;4.93;;;3.40;;
253;SDS011;590;48.772;8.846;2023-05-29T15:07:12;4.90;;;3.97;;
253;SDS011;590;48.772;8.846;2023-05-29T15:09:40;3.90;;;3.37;;
253;SDS011;590;48.772;8.846;2023-05-29T15:12:08;4.40;;;3.70;;
253;SDS011;590;48.772;8.846;2023-05-29T15:14:38;3.80;;;3.60;;
253;SDS011;590;48.772;8.846;2023-05-29T15:17:06;4.00;;;3.80;;
253;SDS011;590;48.772;8.846;2023-05-29T15:19:34;4.13;;;3.70;;
253;SDS011;590;48.772;8.846;2023-05-29T15:22:02;4.07;;;3.70;;
253;SDS011;590;48.772;8.846;2023-05-29T15:24:30;3.70;;;3.53;;
253;SDS011;590;48.772;8.846;2023-05-29T15:26:58;3.57;;;3.40;;
253;SDS011;590;48.772;8.846;2023-05-29T15:29:31;3.57;;;3.37;;
253;SDS011;590;48.772;8.846;2023-05-29T15:32:01;5.53;;;3.80;;
253;SDS011;590;48.772;8.846;2023-05-29T15:34:30;3.37;;;3.17;;
253;SDS011;590;48.772;8.846;2023-05-29T15:37:00;3.70;;;3.50;;
253;SDS011;590;48.772;8.846;2023-05-29T15:39:28;4.30;;;3.40;;
253;SDS011;590;48.772;8.846;2023-05-29T15:41:56;4.03;;;3.33;;
253;SDS011;590;48.772;8.846;2023-05-29T15:44:24;3.13;;;2.93;;
253;SDS011;590;48.772;8.846;2023-05-29T15:46:52;4.33;;;3.43;;
253;SDS011;590;48.772;8.846;2023-05-29T15:49:21;5.60;;;3.20;;
253;SDS011;590;48.772;8.846;2023-05-29T15:51:49;4.20;;;3.97;;
253;SDS011;590;48.772;8.846;2023-05-29T15:54:17;6.40;;;6.03;;
253;SDS011;590;48.772;8.846;2023-05-29T15:56:45;3.80;;;3.60;;
253;SDS011;590;48.772;8.846;2023-05-29T15:59:13;3.30;;;3.10;;
253;SDS011;590;48.772;8.846;2023-05-29T16:01:41;3.20;;;3.00;;
253;SDS011;590;48.772;8.846;2023-05-29T16:04:09;4.40;;;3.70;;
253;SDS011;590;48.772;8.846;2023-05-29T16:06:40;4.00;;;3.30;;